Time;durP1;ratioP1;P1;durP2;ratioP2;P2;SDS_P1;SDS_P2;PMS_P1;PMS_P2;Temp;Humidity;BMP_temperature;BMP_pressure;BME280_temperature;BME280_humidity;BME280_pressure;Samples;Min_cycle;Max_cycle;Signal;HPM_P1;HPM_P2
2023/12/24 00:02:54;;;;;;;7.90;5.70;;;;;;;0.51;82.82;98727.58;222497;1229;71572;-84
2023/12/24 00:07:52;;;;;;;10.20;5.20;;;;;;;0.52;82.58;98733.74;222240;1229;61431;-84
2023/12/24 00:12:44;;;;;;;9.90;4.90;;;;;;;0.53;82.75;98734.80;222456;1228;61202;-84
2023/12/24 00:17:36;;;;;;;10.40;4.30;;;;;;;0.54;82.67;98747.45;222453;1228;61292;-83
2023/12/24 00:22:28;;;;;;;11.20;5.00;;;;;;;0.55;82.50;98748.15;222453;1228;66675;-82
2023/12/24 00:27:20;;;;;;;6.80;4.50;;;;;;;0.56;82.46;98753.27;222542;1229;61275;-83
2023/12/24 00:32:12;;;;;;;8.30;5.10;;;;;;;0.55;82.38;98761.79;222403;1233;61392;-83
2023/12/24 00:37:03;;;;;;;11.90;4.90;;;;;;;0.54;82.32;98767.05;222511;1229;61249;-84
2023/12/24 00:41:55;;;;;;;10.50;4.90;;;;;;;0.55;82.23;98782.08;222560;1228;74400;-83
2023/12/24 00:46:47;;;;;;;11.40;5.70;;;;;;;0.54;82.47;98789.20;222555;1228;62063;-83
2023/12/24 00:51:44;;;;;;;5.60;3.50;;;;;;;0.49;81.87;98797.59;222661;1228;61258;-84
2023/12/24 00:56:35;;;;;;;6.20;3.40;;;;;;;0.39;81.70;98805.20;222581;1229;72971;-83
2023/12/24 01:01:27;;;;;;;4.90;3.50;;;;;;;0.32;81.40;98810.95;222328;1228;61274;-83
2023/12/24 01:06:18;;;;;;;6.50;4.00;;;;;;;0.23;81.28;98814.46;222574;1233;61290;-83
2023/12/24 01:11:12;;;;;;;5.70;3.10;;;;;;;0.16;81.32;98822.12;222611;1228;61226;-84
2023/12/24 01:16:04;;;;;;;5.60;3.40;;;;;;;0.13;81.60;98833.27;222565;1228;65680;-83
2023/12/24 01:20:56;;;;;;;8.00;4.70;;;;;;;0.15;81.74;98839.63;222398;1228;61334;-83
2023/12/24 01:25:48;;;;;;;7.50;4.70;;;;;;;0.16;81.81;98841.34;222606;1228;61186;-84
2023/12/24 01:30:39;;;;;;;8.10;4.40;;;;;;;0.17;81.76;98844.30;222572;1228;61194;-83
2023/12/24 01:35:31;;;;;;;6.90;4.10;;;;;;;0.19;81.53;98852.35;222506;1228;74417;-84
2023/12/24 01:40:22;;;;;;;4.90;3.00;;;;;;;0.22;81.53;98864.00;222500;1228;61379;-83
2023/12/24 01:45:14;;;;;;;6.50;3.00;;;;;;;0.23;81.18;98866.94;222406;1229;61261;-84
2023/12/24 01:50:06;;;;;;;7.60;3.20;;;;;;;0.23;81.10;98868.46;222349;1228;72809;-83
2023/12/24 01:54:57;;;;;;;6.10;3.30;;;;;;;0.23;81.10;98879.53;222389;1228;61323;-83
2023/12/24 01:59:50;;;;;;;8.60;3.50;;;;;;;0.21;80.90;98881.38;222541;1228;61357;-83
2023/12/24 02:04:42;;;;;;;7.00;3.00;;;;;;;0.17;80.64;98890.61;222433;1228;61363;-84
2023/12/24 02:09:34;;;;;;;6.20;4.00;;;;;;;0.11;80.71;98901.52;222495;1228;61229;-83
2023/12/24 02:14:25;;;;;;;7.10;3.00;;;;;;;0.07;80.60;98917.91;222613;1228;61315;-83
2023/12/24 02:19:18;;;;;;;5.10;3.10;;;;;;;0.01;80.37;98919.98;222567;1228;61219;-83
2023/12/24 02:24:11;;;;;;;4.70;2.80;;;;;;;-0.06;80.31;98921.46;222409;1228;61353;-83
2023/12/24 02:29:13;;;;;;;6.50;3.60;;;;;;;-0.13;80.24;98922.59;222674;1228;61351;-83
2023/12/24 02:34:07;;;;;;;6.20;2.70;;;;;;;-0.20;80.52;98932.43;222524;1233;66757;-83
2023/12/24 02:38:59;;;;;;;8.90;3.30;;;;;;;-0.27;80.54;98934.77;222520;1228;61341;-83
2023/12/24 02:43:52;;;;;;;5.60;3.00;;;;;;;-0.32;80.63;98946.70;222362;1228;61293;-83
2023/12/24 02:48:46;;;;;;;8.90;3.70;;;;;;;-0.34;80.59;98950.54;222615;1228;61767;-84
2023/12/24 02:53:37;;;;;;;9.40;3.40;;;;;;;-0.34;80.60;98954.13;222596;1228;61264;-83
2023/12/24 02:58:29;;;;;;;6.00;3.50;;;;;;;-0.32;80.69;98954.52;222496;1228;61274;-83
2023/12/24 03:03:22;;;;;;;4.80;2.70;;;;;;;-0.32;80.70;98964.25;222461;1228;61220;-83
2023/12/24 03:08:15;;;;;;;4.10;3.30;;;;;;;-0.31;80.71;98964.77;222665;1228;61370;-83
2023/12/24 03:13:09;;;;;;;5.40;2.60;;;;;;;-0.34;80.65;98973.70;222381;1228;61271;-83
2023/12/24 03:18:17;;;;;;;7.80;3.20;;;;;;;-0.41;80.44;98983.36;222517;1228;73551;-83
2023/12/24 03:23:11;;;;;;;7.10;3.10;;;;;;;-0.48;80.78;98993.67;222468;1228;72461;-83
2023/12/24 03:28:17;;;;;;;6.70;3.50;;;;;;;-0.52;80.88;98998.67;222570;1229;61082;-84
2023/12/24 03:33:12;;;;;;;10.40;3.10;;;;;;;-0.49;81.18;98998.58;222390;1228;69042;-84
2023/12/24 03:38:04;;;;;;;5.10;3.10;;;;;;;-0.46;80.96;99004.81;222404;1228;61277;-84
2023/12/24 03:42:59;;;;;;;3.90;2.90;;;;;;;-0.43;81.12;99004.75;222487;1228;73653;-85
2023/12/24 03:47:55;;;;;;;7.80;3.50;;;;;;;-0.41;81.20;99012.48;222389;1228;61444;-83
2023/12/24 03:52:55;;;;;;;5.90;3.40;;;;;;;-0.39;81.02;99021.38;222440;1228;61295;-84
2023/12/24 03:57:56;;;;;;;9.30;3.20;;;;;;;-0.39;81.55;99035.19;222483;1229;66692;-83
2023/12/24 04:02:55;;;;;;;5.50;3.10;;;;;;;-0.43;81.44;99042.37;222552;1233;61229;-83
2023/12/24 04:07:54;;;;;;;8.40;2.20;;;;;;;-0.50;81.50;99047.08;222509;1228;74491;-84
2023/12/24 04:12:49;;;;;;;3.10;2.50;;;;;;;-0.53;81.49;99049.52;222593;1228;72506;-83
2023/12/24 04:18:08;;;;;;;5.50;2.90;;;;;;;-0.54;81.66;99041.29;222318;1233;61219;-83
2023/12/24 04:23:20;;;;;;;4.50;2.90;;;;;;;-0.61;81.65;99044.99;222495;1228;65877;-83
2023/12/24 04:28:27;;;;;;;6.60;2.60;;;;;;;-0.65;81.83;99044.48;222352;1233;61866;-83
2023/12/24 04:33:37;;;;;;;7.20;3.80;;;;;;;-0.68;82.07;99047.95;222389;1228;73612;-84
2023/12/24 04:38:41;;;;;;;8.40;4.00;;;;;;;-0.75;82.07;99055.02;222355;1228;72706;-84
2023/12/24 04:43:50;;;;;;;8.30;3.40;;;;;;;-0.85;82.21;99057.27;222533;1228;61344;-84
2023/12/24 04:48:49;;;;;;;6.50;3.60;;;;;;;-0.90;82.42;99058.44;222436;1229;65471;-83
2023/12/24 04:53:43;;;;;;;5.20;2.80;;;;;;;-0.94;82.45;99068.13;222578;1228;61128;-84
2023/12/24 04:58:35;;;;;;;4.10;2.70;;;;;;;-0.98;82.63;99080.59;222585;1231;75468;-84
2023/12/24 05:03:27;;;;;;;5.20;2.90;;;;;;;-1.01;82.65;99082.16;222461;1228;61934;-84
2023/12/24 05:08:18;;;;;;;5.00;2.80;;;;;;;-1.05;83.06;99086.46;222551;1228;61302;-84
2023/12/24 05:13:12;;;;;;;4.00;2.50;;;;;;;-1.09;82.77;99084.94;222512;1228;72321;-83
2023/12/24 05:18:03;;;;;;;7.00;3.80;;;;;;;-1.10;83.14;99092.02;222434;1228;61248;-84
2023/12/24 05:22:56;;;;;;;5.80;2.60;;;;;;;-1.13;83.04;99098.89;222538;1228;61306;-84
2023/12/24 05:27:48;;;;;;;6.50;3.10;;;;;;;-1.16;82.98;99107.12;222463;1228;61247;-83
2023/12/24 05:32:39;;;;;;;7.80;3.00;;;;;;;-1.21;83.06;99120.36;222511;1228;61300;-83
2023/12/24 05:37:31;;;;;;;11.20;4.00;;;;;;;-1.25;83.22;99126.00;222466;1228;61234;-84
2023/12/24 05:42:22;;;;;;;5.40;3.00;;;;;;;-1.30;83.11;99135.67;222522;1228;61430;-84
2023/12/24 05:47:14;;;;;;;6.30;3.30;;;;;;;-1.31;83.49;99137.65;222481;1228;61264;-83
2023/12/24 05:52:05;;;;;;;8.90;3.00;;;;;;;-1.31;83.55;99141.59;222465;1228;75338;-83
2023/12/24 05:56:57;;;;;;;6.40;3.70;;;;;;;-1.31;83.45;99143.60;222513;1228;61406;-84
2023/12/24 06:01:48;;;;;;;4.40;3.40;;;;;;;-1.32;83.67;99153.11;222420;1228;61218;-84
2023/12/24 06:06:43;;;;;;;6.50;4.50;;;;;;;-1.29;83.80;99151.33;122380;1233;1016813;-84
2023/12/24 06:11:34;;;;;;;9.80;3.40;;;;;;;-1.28;83.85;99153.41;110454;1228;1071154;-84
2023/12/24 06:16:26;;;;;;;7.20;3.40;;;;;;;-1.27;83.91;99158.55;110558;1229;1016136;-83
2023/12/24 06:21:17;;;;;;;7.10;3.80;;;;;;;-1.27;83.76;99159.08;110511;1233;1072145;-84
2023/12/24 06:26:09;;;;;;;5.80;4.30;;;;;;;-1.26;83.94;99163.36;110467;1234;1016449;-84
2023/12/24 06:31:00;;;;;;;4.30;3.00;;;;;;;-1.24;83.74;99166.67;110532;1228;1051737;-84
2023/12/24 06:35:52;;;;;;;5.40;3.10;;;;;;;-1.21;83.74;99175.46;110561;1228;1015841;-84
2023/12/24 06:40:43;;;;;;;5.30;3.70;;;;;;;-1.18;83.85;99173.55;110512;1228;1065854;-84
2023/12/24 06:45:34;;;;;;;9.60;3.40;;;;;;;-1.13;84.00;99176.11;110513;1228;1015835;-84
2023/12/24 06:50:26;;;;;;;7.20;4.00;;;;;;;-1.08;83.70;99180.36;110559;1228;1059109;-84
2023/12/24 06:55:19;;;;;;;11.60;4.50;;;;;;;-1.05;83.69;99184.24;110435;1228;1018606;-84
2023/12/24 07:00:43;;;;;;;7.30;4.60;;;;;;;-0.99;84.12;99184.83;110573;1228;1064597;-84
2023/12/24 07:05:53;;;;;;;9.30;4.70;;;;;;;-0.91;84.00;99189.03;110270;1228;1071991;-84
2023/12/24 07:10:51;;;;;;;9.50;4.80;;;;;;;-0.84;83.86;99186.58;110558;1228;1050967;-84
2023/12/24 07:15:45;;;;;;;8.80;4.30;;;;;;;-0.77;83.75;99194.31;110602;1228;1061409;-84
2023/12/24 07:20:38;;;;;;;6.50;4.10;;;;;;;-0.71;83.63;99197.77;110522;1228;1018466;-84
2023/12/24 07:25:30;;;;;;;7.60;4.80;;;;;;;-0.65;83.79;99197.15;110596;1230;1017781;-84
2023/12/24 07:30:21;;;;;;;9.70;4.80;;;;;;;-0.58;83.74;99198.11;110468;1228;1053765;-84
2023/12/24 07:35:13;;;;;;;7.80;5.10;;;;;;;-0.51;84.04;99193.59;110568;1228;1016403;-84
2023/12/24 07:40:08;;;;;;;5.90;4.40;;;;;;;-0.43;83.92;99185.38;110520;1228;1065342;-84
2023/12/24 07:44:59;;;;;;;9.50;5.20;;;;;;;-0.35;83.79;99190.58;110509;1228;1070867;-84
2023/12/24 07:49:51;;;;;;;8.70;5.80;;;;;;;-0.28;83.87;99193.40;110487;1228;1016420;-84
2023/12/24 07:54:42;;;;;;;11.00;6.30;;;;;;;-0.19;83.94;99193.19;110553;1228;1072129;-84
2023/12/24 07:59:34;;;;;;;10.10;6.10;;;;;;;-0.11;83.80;99202.48;110602;1229;1017959;-84
2023/12/24 08:04:25;;;;;;;13.10;6.00;;;;;;;-0.05;83.88;99206.63;110590;1228;1050791;-84
2023/12/24 08:09:16;;;;;;;12.10;6.70;;;;;;;0.04;83.96;99212.58;110553;1228;1016018;-83
2023/12/24 08:14:08;;;;;;;16.90;7.00;;;;;;;0.12;83.64;99218.13;110483;1228;1065854;-81
2023/12/24 08:18:59;;;;;;;8.60;5.60;;;;;;;0.20;83.63;99218.92;110547;1228;1016446;-82
2023/12/24 08:23:57;;;;;;;11.10;6.60;;;;;;;0.28;83.40;99226.33;110521;1233;1058387;-81
2023/12/24 08:28:52;;;;;;;8.00;6.20;;;;;;;0.34;83.61;99228.27;110529;1228;1073807;-84
2023/12/24 08:39:26;;;;;;;11.90;6.90;;;;;;;0.51;83.39;99234.13;109718;1239;1050529;-82
2023/12/24 08:44:28;;;;;;;17.30;7.10;;;;;;;0.60;83.58;99242.74;109805;1235;1060097;-82
2023/12/24 08:49:53;;;;;;;10.60;6.40;;;;;;;0.69;83.39;99229.42;109839;1237;1074775;-82
2023/12/24 08:54:45;;;;;;;14.00;7.20;;;;;;;0.77;83.30;99226.07;109905;1238;1016492;-80
2023/12/24 08:59:36;;;;;;;15.50;8.20;;;;;;;0.84;83.44;99223.73;109804;1235;1050157;-82
2023/12/24 09:04:28;;;;;;;12.00;7.10;;;;;;;0.92;83.26;99226.73;109903;1235;1016401;-82
2023/12/24 09:09:19;;;;;;;8.90;5.50;;;;;;;1.02;83.25;99231.13;109920;1235;1068006;-82
2023/12/24 09:14:11;;;;;;;10.60;7.40;;;;;;;1.07;83.01;99231.30;110098;1235;1016189;-82
2023/12/24 09:19:02;;;;;;;10.80;6.80;;;;;;;1.16;83.03;99223.54;110564;1228;1059342;-82
2023/12/24 09:23:55;;;;;;;10.90;7.30;;;;;;;1.21;82.88;99226.78;110662;1228;1016141;-83
2023/12/24 09:28:46;;;;;;;17.10;7.40;;;;;;;1.25;83.03;99227.05;110523;1228;1073127;-80
2023/12/24 09:33:37;;;;;;;11.10;7.60;;;;;;;1.30;83.08;99228.59;110623;1228;1016010;-81
2023/12/24 09:38:29;;;;;;;12.00;7.80;;;;;;;1.31;83.16;99224.17;110537;1228;1074818;-80
2023/12/24 09:43:21;;;;;;;12.90;7.10;;;;;;;1.35;83.02;99222.40;110540;1233;1016129;-80
2023/12/24 09:48:13;;;;;;;11.70;7.30;;;;;;;1.40;82.69;99212.84;110408;1229;1050948;-80
2023/12/24 09:53:06;;;;;;;14.10;8.60;;;;;;;1.45;83.01;99209.23;110423;1228;1016192;-81
2023/12/24 09:57:58;;;;;;;14.20;10.00;;;;;;;1.48;83.02;99203.34;110456;1228;1065808;-81
2023/12/24 10:02:53;;;;;;;15.30;8.30;;;;;;;1.52;82.93;99198.33;110497;1228;1070515;-80
2023/12/24 10:08:15;;;;;;;11.60;7.00;;;;;;;1.56;82.82;99205.94;110521;1228;1050933;-80
2023/12/24 10:13:34;;;;;;;12.50;7.10;;;;;;;1.56;82.72;99198.77;110384;1228;1058810;-79
2023/12/24 10:18:25;;;;;;;16.30;7.80;;;;;;;1.59;82.81;99206.56;110283;1229;1016833;-80
2023/12/24 10:23:19;;;;;;;13.70;7.80;;;;;;;1.61;82.82;99204.38;110416;1228;1070637;-78
2023/12/24 10:28:11;;;;;;;10.60;7.10;;;;;;;1.62;82.66;99200.66;110318;1228;1016330;-81
2023/12/24 10:33:09;;;;;;;12.60;8.00;;;;;;;1.62;82.86;99196.39;110505;1229;1061566;-81
2023/12/24 11:15:57;;;;;;;12.50;8.70;;;;;;;1.88;82.56;99131.34;107501;1255;1065585;-84
2023/12/24 11:47:07;;;;;;;11.40;9.30;;;;;;;2.02;82.64;99104.00;108026;1251;1050825;-81
2023/12/24 11:53:06;;;;;;;15.00;10.10;;;;;;;2.05;82.36;99103.90;108504;1248;1059535;-83
2023/12/24 12:16:25;;;;;;;14.70;8.50;;;;;;;2.04;82.15;99086.10;109653;1237;1051686;-83
2023/12/24 12:39:34;;;;;;;;;;;;;;;2.07;82.09;99085.30;108861;1247;1073652;-84
2023/12/24 12:56:40;;;;;;;;;;;;;;;;;;;;;
2023/12/24 13:01:45;;;;;;;;;;;;;;;2.08;82.72;99093.37;108526;1244;1065390;-83
2023/12/24 13:56:27;;;;;;;;;;;;;;;;;;;;;
2023/12/24 14:02:00;;;;;;;;;;;;;;;;;;;;;
2023/12/24 14:14:07;;;;;;;7.70;6.30;;;;;;;1.45;83.42;99067.34;109720;1238;1050259;-82
2023/12/24 14:19:38;;;;;;;9.90;7.10;;;;;;;1.40;83.69;99057.45;109718;1235;1058458;-82
2023/12/24 14:25:08;;;;;;;;;;;;;;;;;;;;;
2023/12/24 14:42:40;;;;;;;10.00;7.70;;;;;;;1.26;84.37;99021.74;109720;1238;1050553;-82
2023/12/24 14:59:31;;;;;;;13.00;8.30;;;;;;;1.17;84.76;98999.98;110417;1228;1064885;-82
2023/12/24 15:04:58;;;;;;;12.60;8.80;;;;;;;1.11;84.63;98989.27;110459;1233;1070171;-81
2023/12/24 15:10:27;;;;;;;12.00;8.90;;;;;;;1.09;84.70;98987.34;110377;1228;1051236;-81
2023/12/24 15:21:23;;;;;;;14.50;8.40;;;;;;;1.07;84.85;98960.16;109731;1237;1072131;-81
2023/12/24 15:26:45;;;;;;;15.80;11.00;;;;;;;1.06;85.04;98960.11;109791;1236;1065460;-81
2023/12/24 15:32:28;;;;;;;14.10;10.90;;;;;;;1.03;85.23;98953.05;109751;1234;1072892;-81
2023/12/24 15:56:21;;;;;;;15.20;9.70;;;;;;;0.99;86.07;98917.61;110366;1228;1066223;-81
2023/12/24 16:01:57;;;;;;;12.70;10.10;;;;;;;0.99;86.16;98900.72;110338;1228;1073116;-79
2023/12/24 16:06:49;;;;;;;15.20;9.60;;;;;;;1.00;86.38;98887.26;110250;1229;1016173;-80
2023/12/24 16:11:43;;;;;;;12.60;9.00;;;;;;;1.01;86.30;98873.63;110299;1229;1018461;-80
2023/12/24 16:29:56;;;;;;;13.10;10.30;;;;;;;1.00;86.74;98853.83;109730;1236;1051355;-80
2023/12/24 16:36:03;;;;;;;13.70;10.50;;;;;;;1.00;86.67;98846.66;109726;1236;1058651;-82
2023/12/24 16:41:06;;;;;;;14.20;9.90;;;;;;;0.99;86.94;98839.97;109543;1235;1074899;-80
2023/12/24 16:58:50;;;;;;;;;;;;;;;;;;;;;
2023/12/24 17:04:42;;;;;;;12.80;8.60;;;;;;;1.03;87.48;98792.48;110192;1229;1059655;-81
2023/12/24 17:16:48;;;;;;;13.40;9.10;;;;;;;1.03;87.71;98780.02;109406;1243;1065519;-82
2023/12/24 17:29:18;;;;;;;14.60;9.90;;;;;;;1.03;88.06;98762.45;108983;1248;1050925;-80
2023/12/24 17:35:06;;;;;;;12.50;9.20;;;;;;;1.05;88.08;98762.14;108912;1245;1060086;-80
2023/12/24 17:47:30;;;;;;;16.20;11.10;;;;;;;1.07;88.24;98733.89;108519;1252;1065250;-81
2023/12/24 17:53:24;;;;;;;;;;;;;;;;;;;;;
2023/12/24 17:58:44;;;;;;;12.30;9.00;;;;;;;1.08;88.49;98703.89;108187;1252;1051521;-81
2023/12/24 18:03:58;;;;;;;13.70;10.00;;;;;;;1.09;88.64;98684.95;108426;1248;1016668;-80
2023/12/24 18:27:55;;;;;;;14.40;10.40;;;;;;;1.23;89.38;98649.92;107280;1264;1059738;-79
2023/12/24 18:33:29;;;;;;;14.40;9.90;;;;;;;1.26;89.25;98651.19;107661;1260;1075146;-77
2023/12/24 18:39:18;;;;;;;14.40;10.80;;;;;;;1.29;89.52;98653.98;107693;1252;1065639;-77
2023/12/24 18:56:09;;;;;;;13.60;9.80;;;;;;;1.42;89.86;98600.98;109330;1228;1060361;-76
2023/12/24 19:07:25;;;;;;;15.50;11.10;;;;;;;1.49;89.92;98585.58;110313;1228;1071565;-77
2023/12/24 19:12:20;;;;;;;16.30;11.40;;;;;;;1.54;90.07;98573.20;110361;1228;1052133;-77
2023/12/24 19:17:57;;;;;;;18.30;12.70;;;;;;;1.59;90.24;98558.78;110340;1234;1058195;-80
2023/12/24 19:35:58;;;;;;;22.10;14.90;;;;;;;1.71;90.41;98506.91;110308;1228;1073079;-79
2023/12/24 19:52:53;;;;;;;;;;;;;;;;;;;;;
2023/12/24 19:58:10;;;;;;;20.00;15.50;;;;;;;1.90;91.19;98484.83;110351;1229;1067660;-81
2023/12/24 20:09:37;;;;;;;20.80;13.90;;;;;;;2.06;91.36;98467.65;110403;1228;1051329;-78
2023/12/24 20:19:57;;;;;;;19.10;14.50;;;;;;;2.27;92.07;98450.70;110249;1229;1073714;-80
2023/12/24 20:25:25;;;;;;;20.30;14.30;;;;;;;2.36;92.03;98427.04;110400;1228;1067717;-78
2023/12/24 20:36:42;;;;;;;21.10;14.90;;;;;;;2.62;92.97;98387.02;110378;1228;1057847;-79
2023/12/24 20:41:56;;;;;;;18.60;13.50;;;;;;;2.75;93.20;98383.73;110455;1228;1072688;-79
2023/12/24 21:05:01;;;;;;;16.30;11.50;;;;;;;3.23;93.64;98351.86;110097;1241;1072185;-78
2023/12/24 21:11:06;;;;;;;;;;;;;;;;;;;;;
2023/12/24 21:16:55;;;;;;;13.80;11.30;;;;;;;3.41;93.83;98344.29;109634;1238;1071501;-79
2023/12/24 21:22:01;;;;;;;14.10;11.30;;;;;;;3.60;94.69;98331.41;109492;1241;1051540;-79
2023/12/24 21:27:09;;;;;;;12.60;10.20;;;;;;;3.81;95.61;98310.64;109749;1238;1016323;-77
2023/12/24 21:32:22;;;;;;;14.80;10.30;;;;;;;4.09;96.20;98293.80;110506;1228;1064937;-78
2023/12/24 21:44:27;;;;;;;10.90;9.30;;;;;;;4.47;96.53;98271.10;109664;1240;1050482;-78
2023/12/24 21:49:56;;;;;;;9.40;7.40;;;;;;;4.68;96.79;98275.44;109654;1240;1061269;-79
2023/12/24 22:01:06;;;;;;;6.70;5.20;;;;;;;5.12;97.78;98266.20;109811;1240;1065590;-81
2023/12/24 22:07:00;;;;;;;8.50;7.00;;;;;;;5.35;97.89;98250.20;109109;1241;1071133;-84
2023/12/24 22:17:49;;;;;;;8.40;6.50;;;;;;;5.66;98.22;98223.67;109020;1242;1059455;-79
2023/12/24 22:29:03;;;;;;;7.70;6.30;;;;;;;5.99;98.53;98198.80;108843;1244;1073738;-79
2023/12/24 22:34:44;;;;;;;7.00;5.60;;;;;;;6.10;98.25;98197.04;108969;1244;1050495;-80
2023/12/24 22:46:02;;;;;;;7.50;6.20;;;;;;;6.22;98.32;98171.00;109536;1241;1073070;-81
2023/12/24 22:51:06;;;;;;;6.90;5.80;;;;;;;6.31;98.50;98163.88;109192;1244;1065613;-81
2023/12/24 22:56:20;;;;;;;7.60;5.30;;;;;;;6.39;98.62;98153.00;109219;1243;1070658;-82
2023/12/24 23:12:56;;;;;;;4.00;3.50;;;;;;;6.60;99.02;98124.42;109662;1237;1072909;-82
2023/12/24 23:18:28;;;;;;;;;;;;;;;;;;;;;
2023/12/24 23:24:01;;;;;;;4.20;3.70;;;;;;;6.72;99.10;98109.86;109407;1235;1070468;-80
2023/12/24 23:28:53;;;;;;;3.30;2.70;;;;;;;6.74;98.71;98105.19;110112;1235;1051277;-80
2023/12/24 23:34:03;;;;;;;2.80;2.20;;;;;;;6.78;99.11;98096.36;110021;1240;1015950;-80
2023/12/24 23:39:17;;;;;;;4.20;2.30;;;;;;;6.82;98.71;98097.88;110038;1235;1071430;-80
2023/12/24 23:44:14;;;;;;;3.00;1.90;;;;;;;6.85;99.12;98099.23;110013;1235;1067661;-80
2023/12/24 23:49:24;;;;;;;2.50;2.30;;;;;;;6.89;98.97;98098.52;110078;1228;1070310;-79
2023/12/24 23:54:40;;;;;;;2.10;1.90;;;;;;;6.96;99.82;98100.34;110574;1228;1051024;-80
